Time;durP1;ratioP1;P1;durP2;ratioP2;P2;SDS_P1;SDS_P2;PMS_P1;PMS_P2;Temp;Humidity;BMP_temperature;BMP_pressure;BME280_temperature;BME280_humidity;BME280_pressure;Samples;Min_cycle;Max_cycle;Signal;HPM_P1;HPM_P2
2021/07/31 00:00:28;;;;;;;20.27;8.52;;;14.80;90.70;;;;;;5071700;28;20075;-70
2021/07/31 00:02:54;;;;;;;13.35;7.53;;;14.70;90.70;;;;;;5073528;28;20016;-71
2021/07/31 00:05:21;;;;;;;18.10;6.85;;;14.70;90.70;;;;;;5071472;28;20109;-74
2021/07/31 00:07:48;;;;;;;14.00;7.65;;;14.70;90.70;;;;;;5073939;28;20033;-74
2021/07/31 00:10:14;;;;;;;21.15;9.38;;;14.70;90.70;;;;;;5074042;28;20028;-71
2021/07/31 00:12:41;;;;;;;16.27;8.15;;;14.70;90.80;;;;;;5072849;28;20098;-71
2021/07/31 00:15:08;;;;;;;13.68;9.48;;;14.70;90.80;;;;;;5077435;28;20047;-71
2021/07/31 00:17:34;;;;;;;11.93;6.93;;;14.70;90.70;;;;;;5076833;28;20021;-72
2021/07/31 00:20:01;;;;;;;19.80;7.18;;;14.70;90.80;;;;;;5074106;28;20082;-75
2021/07/31 00:22:27;;;;;;;16.83;7.60;;;14.70;90.80;;;;;;5076026;28;20418;-71
2021/07/31 00:24:53;;;;;;;20.63;7.40;;;14.70;90.80;;;;;;5075169;28;20047;-75
2021/07/31 00:27:59;;;;;;;15.75;6.80;;;14.70;90.70;;;;;;5075977;28;20028;-76
2021/07/31 00:31:06;;;;;;;16.30;6.75;;;14.60;90.70;;;;;;5075176;28;20078;-76
2021/07/31 00:33:32;;;;;;;17.48;6.18;;;14.70;90.90;;;;;;5077863;28;20070;-75
2021/07/31 00:35:59;;;;;;;16.50;6.40;;;14.70;90.90;;;;;;5076453;28;20016;-74
2021/07/31 00:38:25;;;;;;;12.38;6.10;;;14.60;90.90;;;;;;5076752;28;20027;-75
2021/07/31 00:40:52;;;;;;;13.73;7.10;;;14.60;90.90;;;;;;5078614;28;20016;-71
2021/07/31 00:43:18;;;;;;;16.33;7.30;;;14.60;91.00;;;;;;5073635;28;20029;-70
2021/07/31 00:46:25;;;;;;;16.20;7.15;;;14.60;90.90;;;;;;5078381;28;20048;-75
2021/07/31 00:49:31;;;;;;;15.43;6.47;;;14.60;90.90;;;;;;5077320;28;20046;-75
2021/07/31 00:52:37;;;;;;;17.80;6.30;;;14.60;90.90;;;;;;5075848;28;20103;-74
2021/07/31 00:55:43;;;;;;;13.48;6.07;;;14.60;90.90;;;;;;5073586;28;20029;-72
2021/07/31 00:58:49;;;;;;;11.82;6.05;;;14.60;91.00;;;;;;5076773;28;20032;-73
2021/07/31 01:01:55;;;;;;;15.45;6.03;;;14.50;90.90;;;;;;5076351;28;20542;-75
2021/07/31 01:05:01;;;;;;;15.55;6.60;;;14.60;91.10;;;;;;5074996;28;20041;-72
2021/07/31 01:08:07;;;;;;;18.65;6.15;;;14.50;91.00;;;;;;5074716;28;20117;-72
2021/07/31 01:11:13;;;;;;;20.55;5.82;;;14.50;91.20;;;;;;5076547;28;20036;-71
2021/07/31 01:14:20;;;;;;;17.77;6.22;;;14.50;91.20;;;;;;5075546;28;20017;-71
2021/07/31 01:17:26;;;;;;;14.20;6.40;;;14.50;91.10;;;;;;5076648;28;20021;-71
2021/07/31 01:20:32;;;;;;;19.00;7.68;;;14.50;91.10;;;;;;5079479;28;20058;-72
2021/07/31 01:23:38;;;;;;;13.52;6.85;;;14.50;91.10;;;;;;5075839;28;20028;-71
2021/07/31 01:26:44;;;;;;;25.88;6.65;;;14.50;91.10;;;;;;5073137;28;20060;-72
2021/07/31 01:29:50;;;;;;;14.10;6.65;;;14.50;91.00;;;;;;5079238;28;20368;-73
2021/07/31 01:32:56;;;;;;;13.60;6.50;;;14.40;90.70;;;;;;5074751;28;20085;-72
2021/07/31 01:36:02;;;;;;;14.07;6.18;;;14.40;90.50;;;;;;5076451;28;20439;-74
2021/07/31 01:39:08;;;;;;;12.55;5.47;;;14.30;90.40;;;;;;5075625;28;20437;-75
2021/07/31 01:42:14;;;;;;;10.10;4.50;;;14.20;90.40;;;;;;5075077;28;20540;-71
2021/07/31 01:45:20;;;;;;;9.65;6.03;;;14.20;90.30;;;;;;5075247;28;20571;-71
2021/07/31 01:48:26;;;;;;;13.30;5.82;;;14.10;90.20;;;;;;5072981;28;20036;-73
2021/07/31 01:51:32;;;;;;;11.68;6.03;;;14.10;90.10;;;;;;5074531;28;20027;-75
2021/07/31 01:54:38;;;;;;;14.88;5.60;;;14.00;90.00;;;;;;5071943;28;20029;-75
2021/07/31 01:57:44;;;;;;;10.90;6.05;;;14.00;90.10;;;;;;5076303;28;20028;-74
2021/07/31 02:00:50;;;;;;;8.73;5.10;;;14.00;90.00;;;;;;5075211;28;20378;-74
2021/07/31 02:03:56;;;;;;;14.57;5.15;;;13.90;90.00;;;;;;5075215;28;20102;-69
2021/07/31 02:07:02;;;;;;;11.40;4.88;;;13.90;90.00;;;;;;5073366;28;20027;-70
2021/07/31 02:10:08;;;;;;;13.77;5.65;;;13.90;89.90;;;;;;5056804;28;20399;-71
2021/07/31 02:13:14;;;;;;;12.00;5.75;;;13.80;89.80;;;;;;5077434;28;20024;-73
2021/07/31 02:16:20;;;;;;;12.32;4.10;;;13.80;89.60;;;;;;5077279;28;20021;-70
2021/07/31 02:19:26;;;;;;;16.73;9.40;;;13.70;89.20;;;;;;5074724;28;20494;-70
2021/07/31 02:22:32;;;;;;;12.90;9.27;;;13.70;89.30;;;;;;5074031;28;20150;-71
2021/07/31 02:25:39;;;;;;;10.27;5.22;;;13.70;88.70;;;;;;5074478;28;20480;-71
2021/07/31 02:28:45;;;;;;;14.02;5.05;;;13.70;88.50;;;;;;5074012;28;20033;-71
2021/07/31 02:31:51;;;;;;;12.95;5.45;;;13.60;88.60;;;;;;5071420;28;20020;-71
2021/07/31 02:34:57;;;;;;;8.23;3.28;;;13.50;88.80;;;;;;5073879;28;20509;-72
2021/07/31 02:38:03;;;;;;;10.80;3.50;;;13.60;88.70;;;;;;5072679;28;20028;-71
2021/07/31 02:41:09;;;;;;;11.73;3.47;;;13.50;89.00;;;;;;5077035;28;20021;-72
2021/07/31 02:44:15;;;;;;;7.97;3.80;;;13.50;88.30;;;;;;5073697;28;20103;-71
2021/07/31 02:46:42;;;;;;;9.07;3.38;;;13.40;88.20;;;;;;5079319;28;20039;-72
2021/07/31 02:49:08;;;;;;;8.77;3.60;;;13.40;88.10;;;;;;5072536;28;20071;-72
2021/07/31 02:51:34;;;;;;;8.88;4.03;;;13.40;87.90;;;;;;5071030;28;20021;-71
2021/07/31 02:54:01;;;;;;;8.77;3.90;;;13.30;87.90;;;;;;5075873;28;20027;-72
2021/07/31 02:56:27;;;;;;;11.88;3.17;;;13.30;87.50;;;;;;5076015;28;20035;-72
2021/07/31 02:58:54;;;;;;;9.93;3.55;;;13.30;87.30;;;;;;5075370;28;20119;-72
2021/07/31 03:01:21;;;;;;;16.27;3.78;;;13.30;87.00;;;;;;5071925;28;20078;-72
2021/07/31 03:03:47;;;;;;;4.88;2.92;;;13.30;87.20;;;;;;5074386;28;20475;-73
2021/07/31 03:06:14;;;;;;;6.57;2.58;;;13.20;87.00;;;;;;5073301;28;20020;-72
2021/07/31 03:08:40;;;;;;;7.25;2.92;;;13.20;86.70;;;;;;5073216;28;20032;-69
2021/07/31 03:11:08;;;;;;;51.78;38.47;;;13.20;86.80;;;;;;5072995;28;20020;-68
2021/07/31 03:13:35;;;;;;;85.65;54.05;;;13.20;87.10;;;;;;5074613;28;20024;-68
2021/07/31 03:16:01;;;;;;;22.52;14.98;;;13.10;87.00;;;;;;5072926;28;20016;-68
2021/07/31 03:18:28;;;;;;;7.43;3.60;;;13.10;86.70;;;;;;5073006;28;20074;-68
2021/07/31 03:20:55;;;;;;;12.95;3.17;;;13.10;86.70;;;;;;5074987;28;20050;-68
2021/07/31 03:23:23;;;;;;;5.80;2.72;;;13.10;86.80;;;;;;5073353;28;20391;-68
2021/07/31 03:25:56;;;;;;;5.85;2.97;;;13.00;86.40;;;;;;5072146;28;20043;-68
2021/07/31 03:28:24;;;;;;;6.00;3.90;;;13.00;86.40;;;;;;5070602;28;20364;-68
2021/07/31 03:30:50;;;;;;;3.88;2.30;;;12.90;86.30;;;;;;5071661;28;20013;-68
2021/07/31 03:33:16;;;;;;;8.13;2.83;;;12.90;86.70;;;;;;5074024;28;20469;-68
2021/07/31 03:35:44;;;;;;;6.07;2.97;;;12.90;86.70;;;;;;5073784;28;20104;-68
2021/07/31 03:38:11;;;;;;;4.18;2.75;;;12.90;86.40;;;;;;5077691;28;20020;-68
2021/07/31 03:40:38;;;;;;;5.82;2.72;;;12.90;86.30;;;;;;5072788;28;20648;-68
2021/07/31 03:43:05;;;;;;;8.63;2.63;;;12.80;85.90;;;;;;5072081;28;21082;-68
2021/07/31 03:45:32;;;;;;;8.55;2.60;;;12.80;85.90;;;;;;5075261;28;20070;-68
2021/07/31 03:47:58;;;;;;;22.10;13.73;;;12.80;85.90;;;;;;5074304;28;20116;-68
2021/07/31 03:50:25;;;;;;;38.38;25.10;;;12.70;86.40;;;;;;5235446;22;21109;-71
2021/07/31 03:53:31;;;;;;;34.40;19.23;;;12.70;86.50;;;;;;5062893;28;20029;-67
2021/07/31 03:56:37;;;;;;;20.95;11.30;;;12.70;86.30;;;;;;5063868;28;20017;-68
2021/07/31 03:59:43;;;;;;;10.90;3.42;;;12.60;86.30;;;;;;5060835;28;20396;-72
2021/07/31 04:02:49;;;;;;;5.82;2.65;;;12.60;86.30;;;;;;5061439;28;20486;-75
2021/07/31 04:05:55;;;;;;;9.13;2.58;;;12.60;86.40;;;;;;5066507;28;20035;-76
2021/07/31 04:09:01;;;;;;;5.97;2.47;;;12.60;86.50;;;;;;5064702;28;20127;-72
2021/07/31 04:12:07;;;;;;;3.13;2.05;;;12.50;86.20;;;;;;5059515;28;20025;-71
2021/07/31 04:15:13;;;;;;;3.05;1.92;;;12.50;85.90;;;;;;5045524;28;20094;-75
2021/07/31 04:17:40;;;;;;;4.05;2.75;;;12.50;86.20;;;;;;5061509;28;20029;-73
2021/07/31 04:20:07;;;;;;;5.45;2.10;;;12.50;86.00;;;;;;5064519;28;20082;-76
2021/07/31 04:22:34;;;;;;;6.93;1.90;;;12.40;85.90;;;;;;5061196;28;20065;-70
2021/07/31 04:25:00;;;;;;;6.07;2.40;;;12.40;85.90;;;;;;5062985;28;20517;-73
2021/07/31 04:27:27;;;;;;;9.15;2.88;;;12.40;85.90;;;;;;5066885;28;20044;-68
2021/07/31 04:29:53;;;;;;;57.28;42.10;;;12.40;85.90;;;;;;5060113;28;20017;-70
2021/07/31 04:32:20;;;;;;;52.35;31.33;;;12.40;85.70;;;;;;5060101;28;20768;-69
2021/07/31 04:34:46;;;;;;;32.97;20.02;;;12.40;85.50;;;;;;5042189;28;20551;-71
2021/07/31 04:37:12;;;;;;;13.68;8.10;;;12.40;85.40;;;;;;5059264;28;20099;-72
2021/07/31 04:39:39;;;;;;;9.77;4.35;;;12.40;85.10;;;;;;5059624;28;20029;-76
2021/07/31 04:42:45;;;;;;;4.32;2.05;;;12.30;85.00;;;;;;5058257;28;20097;-73
2021/07/31 04:45:51;;;;;;;5.65;2.75;;;12.40;85.00;;;;;;5061829;28;20040;-74
2021/07/31 04:48:57;;;;;;;3.58;1.92;;;12.30;85.00;;;;;;5057405;28;20037;-74
2021/07/31 04:52:03;;;;;;;2.72;1.90;;;12.30;85.10;;;;;;5063748;28;20403;-73
2021/07/31 04:55:09;;;;;;;4.35;1.52;;;12.20;84.90;;;;;;5054345;28;20021;-76
2021/07/31 04:58:15;;;;;;;4.68;2.38;;;12.20;84.80;;;;;;5060121;28;20020;-74
2021/07/31 05:01:21;;;;;;;5.00;1.85;;;12.20;84.90;;;;;;5063866;28;20028;-70
2021/07/31 05:04:27;;;;;;;5.88;2.95;;;12.20;84.90;;;;;;5060106;28;20021;-73
2021/07/31 05:07:33;;;;;;;2.97;2.13;;;12.10;84.60;;;;;;5065108;28;20391;-74
2021/07/31 05:10:40;;;;;;;9.23;3.83;;;12.10;84.70;;;;;;5056410;28;20092;-71
2021/07/31 05:13:46;;;;;;;6.32;2.80;;;12.10;85.10;;;;;;5052623;28;20013;-69
2021/07/31 05:16:55;;;;;;;5.90;2.63;;;12.00;85.20;;;;;;5055275;28;20021;-70
2021/07/31 05:20:04;;;;;;;3.33;2.05;;;12.00;85.00;;;;;;5052898;28;20029;-71
2021/07/31 05:23:10;;;;;;;2.28;1.67;;;12.00;84.90;;;;;;5051520;28;20052;-72
2021/07/31 05:26:16;;;;;;;4.28;2.25;;;12.00;84.90;;;;;;5050511;28;20029;-74
2021/07/31 05:29:22;;;;;;;3.20;2.33;;;12.00;84.70;;;;;;5050916;28;20037;-70
2021/07/31 05:32:28;;;;;;;3.17;2.15;;;12.00;85.00;;;;;;5055568;28;20054;-71
2021/07/31 05:35:34;;;;;;;3.13;1.95;;;12.00;85.10;;;;;;5051806;28;20566;-71
2021/07/31 05:38:02;;;;;;;2.63;1.95;;;12.00;85.00;;;;;;5054032;28;20106;-72
2021/07/31 05:40:29;;;;;;;3.28;2.15;;;11.90;85.40;;;;;;5057028;28;20020;-71
2021/07/31 05:42:59;;;;;;;4.63;1.67;;;11.90;85.20;;;;;;5053486;28;20061;-72
2021/07/31 05:45:27;;;;;;;4.40;2.85;;;11.90;85.30;;;;;;5056112;28;20024;-71
2021/07/31 05:47:56;;;;;;;3.47;1.75;;;11.90;85.40;;;;;;5060602;28;20041;-71
2021/07/31 05:50:24;;;;;;;4.82;1.85;;;11.90;85.40;;;;;;5064272;28;20020;-70
2021/07/31 05:52:50;;;;;;;6.00;3.85;;;11.90;85.50;;;;;;5061597;28;20485;-71
2021/07/31 05:55:17;;;;;;;8.35;5.30;;;11.90;85.50;;;;;;5057061;28;20017;-71
2021/07/31 05:57:43;;;;;;;13.65;6.13;;;11.90;85.40;;;;;;5061522;28;20021;-69
2021/07/31 06:00:10;;;;;;;10.48;5.30;;;11.90;85.40;;;;;;5061631;28;20402;-71
2021/07/31 06:02:37;;;;;;;10.50;5.88;;;11.80;85.60;;;;;;5062257;28;20387;-71
2021/07/31 06:05:04;;;;;;;7.88;4.82;;;11.80;85.50;;;;;;5057706;28;20025;-70
2021/07/31 06:07:30;;;;;;;7.10;4.60;;;11.80;85.70;;;;;;5059385;28;20048;-72
2021/07/31 06:09:57;;;;;;;6.53;4.47;;;11.80;85.60;;;;;;5059358;28;20016;-69
2021/07/31 06:12:23;;;;;;;8.25;5.03;;;11.90;85.50;;;;;;5044115;28;20032;-70
2021/07/31 06:14:50;;;;;;;6.95;3.90;;;11.80;86.00;;;;;;5045027;28;20494;-71
2021/07/31 06:17:18;;;;;;;6.57;3.80;;;11.80;86.50;;;;;;5053772;28;20391;-70
2021/07/31 06:19:44;;;;;;;7.50;3.33;;;11.90;87.00;;;;;;5062383;28;20027;-69
2021/07/31 06:22:11;;;;;;;6.25;2.72;;;11.90;87.80;;;;;;5061261;28;20017;-71
2021/07/31 06:24:38;;;;;;;3.35;2.17;;;11.90;88.20;;;;;;5061315;28;20028;-70
2021/07/31 06:27:05;;;;;;;3.75;2.47;;;12.00;88.40;;;;;;5060402;28;20017;-71
2021/07/31 06:29:32;;;;;;;9.65;3.25;;;12.00;88.40;;;;;;5060659;28;20549;-71
2021/07/31 06:31:59;;;;;;;4.18;2.38;;;12.10;88.70;;;;;;5060089;28;20550;-72
2021/07/31 06:34:26;;;;;;;5.82;2.42;;;12.10;88.70;;;;;;5061266;28;20112;-71
2021/07/31 06:36:52;;;;;;;3.72;2.42;;;12.20;89.00;;;;;;5061226;28;20028;-69
2021/07/31 06:39:19;;;;;;;6.35;3.25;;;12.20;89.40;;;;;;5040242;28;20025;-70
2021/07/31 06:41:46;;;;;;;6.32;3.60;;;12.20;89.80;;;;;;5059393;28;20032;-70
2021/07/31 06:44:12;;;;;;;6.57;3.15;;;12.30;90.10;;;;;;5060204;28;20083;-71
2021/07/31 06:46:39;;;;;;;8.02;3.58;;;12.30;90.40;;;;;;5057793;28;20376;-70
2021/07/31 06:49:05;;;;;;;6.32;2.83;;;12.40;90.60;;;;;;5058193;28;20029;-71
2021/07/31 06:51:32;;;;;;;6.97;2.85;;;12.50;90.80;;;;;;5059699;28;20045;-71
2021/07/31 06:54:03;;;;;;;3.75;2.63;;;12.50;90.90;;;;;;5065881;28;20027;-72
2021/07/31 06:56:32;;;;;;;7.45;2.97;;;12.60;91.00;;;;;;5057890;28;20024;-71
2021/07/31 06:58:59;;;;;;;4.32;2.40;;;12.60;91.10;;;;;;5061808;28;20020;-71
2021/07/31 07:01:25;;;;;;;8.40;3.40;;;12.70;91.30;;;;;;5055774;28;20027;-70
2021/07/31 07:03:52;;;;;;;6.82;2.40;;;12.80;91.50;;;;;;5057590;28;20032;-70
2021/07/31 07:06:20;;;;;;;6.03;2.58;;;12.80;91.50;;;;;;5058148;28;20025;-71
2021/07/31 07:08:46;;;;;;;5.68;2.90;;;12.90;91.50;;;;;;5061637;28;20122;-70
2021/07/31 07:11:14;;;;;;;4.60;2.97;;;12.90;91.40;;;;;;5061923;28;20013;-70
2021/07/31 07:13:41;;;;;;;5.38;2.85;;;12.90;91.40;;;;;;5059792;28;20025;-68
2021/07/31 07:16:08;;;;;;;7.28;3.75;;;13.00;91.40;;;;;;5059703;28;20238;-71
2021/07/31 07:18:35;;;;;;;8.10;3.40;;;13.00;91.40;;;;;;5057830;28;20064;-70
2021/07/31 07:21:09;;;;;;;7.05;3.95;;;13.00;91.50;;;;;;5061774;28;20017;-73
2021/07/31 07:23:36;;;;;;;5.78;3.83;;;13.10;91.60;;;;;;5058646;28;20380;-72
2021/07/31 07:26:07;;;;;;;11.95;3.78;;;13.10;91.70;;;;;;5058500;28;20107;-73
2021/07/31 07:28:33;;;;;;;8.25;4.20;;;13.20;91.80;;;;;;5059314;28;20037;-77
2021/07/31 07:31:00;;;;;;;11.93;4.75;;;13.20;91.90;;;;;;5059754;28;20017;-76
2021/07/31 07:33:26;;;;;;;9.00;4.60;;;13.30;92.00;;;;;;5060787;28;20494;-71
2021/07/31 07:35:53;;;;;;;9.65;4.53;;;13.40;92.10;;;;;;5058297;28;20067;-69
2021/07/31 07:38:19;;;;;;;15.90;8.43;;;13.40;92.30;;;;;;5057722;28;20104;-73
2021/07/31 07:40:46;;;;;;;12.65;5.90;;;13.40;92.40;;;;;;5060830;28;20021;-72
2021/07/31 07:43:13;;;;;;;10.00;4.38;;;13.50;92.50;;;;;;5061422;28;20029;-70
2021/07/31 07:45:39;;;;;;;13.98;6.70;;;13.60;92.60;;;;;;5060493;28;20094;-69
2021/07/31 07:48:06;;;;;;;18.85;6.70;;;13.70;92.80;;;;;;5056928;28;20048;-71
2021/07/31 07:50:34;;;;;;;11.63;4.93;;;13.70;93.10;;;;;;5057448;28;20408;-71
2021/07/31 07:53:00;;;;;;;14.45;5.95;;;13.80;93.30;;;;;;5057140;28;20035;-75
2021/07/31 07:55:26;;;;;;;15.88;6.30;;;13.90;93.50;;;;;;5060820;28;20480;-71
2021/07/31 07:57:53;;;;;;;5.95;5.20;;;13.90;93.50;;;;;;5059574;28;20032;-72
2021/07/31 08:00:19;;;;;;;14.75;6.47;;;14.00;93.50;;;;;;5064753;28;20016;-71
2021/07/31 08:02:46;;;;;;;14.93;9.05;;;14.10;93.60;;;;;;5057746;28;20406;-67
2021/07/31 08:05:13;;;;;;;27.08;14.10;;;14.10;93.60;;;;;;5062006;28;20089;-71
2021/07/31 08:07:41;;;;;;;20.50;14.60;;;14.20;93.60;;;;;;5068560;28;20486;-74
2021/07/31 08:10:48;;;;;;;18.02;10.98;;;14.30;93.50;;;;;;5062060;28;20032;-71
2021/07/31 08:13:54;;;;;;;21.10;11.32;;;14.30;93.50;;;;;;5061943;28;20029;-68
2021/07/31 08:17:00;;;;;;;20.90;9.50;;;14.40;93.50;;;;;;5037435;28;20029;-71
2021/07/31 08:20:06;;;;;;;19.27;7.97;;;14.40;93.50;;;;;;5059886;28;20028;-74
2021/07/31 08:23:12;;;;;;;15.25;10.55;;;14.50;93.50;;;;;;5059559;28;20032;-69
2021/07/31 08:26:18;;;;;;;17.27;11.02;;;14.60;93.50;;;;;;5063476;28;20025;-75
2021/07/31 08:29:24;;;;;;;21.90;14.65;;;14.70;93.50;;;;;;5059605;28;20391;-70
2021/07/31 08:32:30;;;;;;;21.52;13.25;;;14.80;93.70;;;;;;5063013;28;20917;-70
2021/07/31 08:34:56;;;;;;;16.48;11.10;;;14.90;93.90;;;;;;5058015;28;20063;-75
2021/07/31 08:37:23;;;;;;;23.27;11.85;;;15.00;93.70;;;;;;5070987;28;20032;-77
2021/07/31 08:39:49;;;;;;;18.02;13.13;;;15.10;93.60;;;;;;5064000;28;20508;-75
2021/07/31 08:42:16;;;;;;;17.27;9.15;;;15.20;93.50;;;;;;5064782;28;20503;-69
2021/07/31 08:44:42;;;;;;;19.52;10.60;;;15.20;93.30;;;;;;5061837;28;20025;-70
2021/07/31 08:47:10;;;;;;;20.38;10.70;;;15.30;93.30;;;;;;5064917;28;20606;-69
2021/07/31 08:49:43;;;;;;;17.45;9.20;;;15.40;93.30;;;;;;5071096;28;20021;-69
2021/07/31 08:52:10;;;;;;;24.83;12.82;;;15.50;93.50;;;;;;5064212;28;20037;-72
2021/07/31 08:54:40;;;;;;;28.38;13.32;;;15.60;93.40;;;;;;5045838;28;20384;-69
2021/07/31 08:57:07;;;;;;;32.22;18.10;;;15.60;93.10;;;;;;5061433;28;20021;-69
2021/07/31 08:59:34;;;;;;;27.83;17.83;;;15.70;92.90;;;;;;5065307;28;20090;-72
2021/07/31 09:02:00;;;;;;;31.77;18.45;;;15.80;93.00;;;;;;5060280;28;20479;-70
2021/07/31 09:04:28;;;;;;;30.77;16.75;;;15.90;92.70;;;;;;5060292;28;20028;-74
2021/07/31 09:06:54;;;;;;;29.85;17.63;;;15.90;92.70;;;;;;5062859;28;20113;-72
2021/07/31 09:09:28;;;;;;;25.17;15.27;;;16.00;92.50;;;;;;5062106;28;20040;-72
2021/07/31 09:12:00;;;;;;;29.05;16.75;;;16.10;92.30;;;;;;5063167;28;20024;-71
2021/07/31 09:14:28;;;;;;;27.05;14.90;;;16.20;92.30;;;;;;5063556;28;20016;-73
2021/07/31 09:16:55;;;;;;;28.75;16.15;;;16.30;92.10;;;;;;5061275;28;20040;-71
2021/07/31 09:19:22;;;;;;;27.92;15.20;;;16.40;92.00;;;;;;5065932;28;20024;-76
2021/07/31 09:21:50;;;;;;;24.38;14.40;;;16.40;91.80;;;;;;5062609;28;20115;-75
2021/07/31 09:24:18;;;;;;;24.27;14.90;;;16.50;91.60;;;;;;5044243;28;20498;-71
2021/07/31 09:26:51;;;;;;;24.90;18.23;;;16.60;91.20;;;;;;5067623;28;20051;-74
2021/07/31 09:29:32;;;;;;;29.88;18.20;;;16.70;90.90;;;;;;5054522;28;20037;-69
2021/07/31 09:32:02;;;;;;;30.33;18.70;;;16.80;90.60;;;;;;5064412;28;20020;-74
2021/07/31 09:34:33;;;;;;;31.75;20.52;;;16.90;90.30;;;;;;5061554;28;20062;-68
2021/07/31 09:37:25;;;;;;;30.13;20.10;;;17.00;90.30;;;;;;5061234;28;20025;-69
2021/07/31 09:40:01;;;;;;;32.38;18.38;;;17.00;90.00;;;;;;5058169;28;20549;-68
2021/07/31 09:42:36;;;;;;;33.25;19.98;;;17.10;89.20;;;;;;5057957;28;20023;-69
2021/07/31 09:45:09;;;;;;;32.28;19.67;;;17.20;89.20;;;;;;5065938;28;20013;-71
2021/07/31 09:47:38;;;;;;;35.20;19.63;;;17.30;89.10;;;;;;5037888;28;20104;-72
2021/07/31 09:50:06;;;;;;;25.33;17.17;;;17.40;88.70;;;;;;5066522;28;20024;-70
2021/07/31 09:52:36;;;;;;;28.10;16.55;;;17.50;88.20;;;;;;5056638;28;20044;-68
2021/07/31 09:55:02;;;;;;;32.22;19.00;;;17.70;88.40;;;;;;5060377;28;20024;-71
2021/07/31 09:57:30;;;;;;;29.65;18.27;;;17.70;87.30;;;;;;5062981;28;20009;-71
2021/07/31 10:00:00;;;;;;;31.00;18.02;;;17.80;86.90;;;;;;5064472;28;20399;-70
2021/07/31 10:02:28;;;;;;;26.98;16.20;;;18.00;86.10;;;;;;5068923;28;20027;-70
2021/07/31 10:04:54;;;;;;;28.17;17.58;;;18.10;84.00;;;;;;5065938;28;20085;-72
2021/07/31 10:07:21;;;;;;;33.08;17.85;;;18.20;84.20;;;;;;5060757;28;20376;-69
2021/07/31 10:09:53;;;;;;;28.63;18.10;;;18.30;84.30;;;;;;5061219;28;20427;-69
2021/07/31 10:12:24;;;;;;;37.47;19.50;;;18.40;84.30;;;;;;5063522;28;20063;-70
2021/07/31 10:14:51;;;;;;;24.83;15.55;;;18.40;83.60;;;;;;5060934;28;20044;-70
2021/07/31 10:17:18;;;;;;;30.58;16.67;;;18.40;82.80;;;;;;5060433;28;20028;-75
2021/07/31 10:19:46;;;;;;;31.83;21.13;;;18.30;82.30;;;;;;5066952;28;20024;-72
2021/07/31 10:22:15;;;;;;;32.15;17.73;;;18.30;82.60;;;;;;5058400;28;20021;-73
2021/07/31 10:24:53;;;;;;;29.88;19.95;;;18.30;82.60;;;;;;5062648;28;20062;-70
2021/07/31 10:27:24;;;;;;;29.88;17.48;;;18.30;81.90;;;;;;5062498;28;20056;-73
2021/07/31 10:29:52;;;;;;;34.17;15.55;;;18.40;81.60;;;;;;5059750;28;20037;-70
2021/07/31 10:32:32;;;;;;;20.60;14.32;;;18.50;80.70;;;;;;5060920;28;20029;-72
2021/07/31 10:35:02;;;;;;;30.13;17.08;;;18.60;80.40;;;;;;5063426;28;20435;-73
2021/07/31 10:37:31;;;;;;;29.83;15.75;;;18.60;79.80;;;;;;5054854;28;20412;-71
2021/07/31 10:39:59;;;;;;;24.52;16.30;;;18.80;79.30;;;;;;5062085;28;20053;-70
2021/07/31 10:42:26;;;;;;;23.75;14.98;;;18.90;79.70;;;;;;5059828;28;20629;-70
2021/07/31 10:45:16;;;;;;;22.63;15.85;;;19.00;79.30;;;;;;5066213;28;20047;-72
2021/07/31 10:47:49;;;;;;;27.02;15.10;;;19.20;78.40;;;;;;5046191;28;20040;-73
2021/07/31 10:50:27;;;;;;;28.25;15.35;;;19.30;78.00;;;;;;5065499;28;20142;-71
2021/07/31 10:53:05;;;;;;;20.98;14.52;;;19.40;76.90;;;;;;5061304;28;20026;-69
2021/07/31 10:55:37;;;;;;;26.75;14.50;;;19.50;76.60;;;;;;5061164;28;20024;-71
2021/07/31 10:58:07;;;;;;;29.52;17.85;;;19.70;75.80;;;;;;5065165;28;20117;-72
2021/07/31 11:00:43;;;;;;;22.42;15.13;;;19.90;75.30;;;;;;5055877;28;20032;-71
2021/07/31 11:03:13;;;;;;;;;;;20.00;74.00;;;;;;5061104;28;20337;-72
2021/07/31 11:05:49;;;;;;;24.75;15.32;;;20.10;72.80;;;;;;5058207;28;19915;-68
2021/07/31 11:08:16;;;;;;;28.13;15.68;;;20.20;72.70;;;;;;5064137;28;20456;-69
2021/07/31 11:10:45;;;;;;;18.15;13.52;;;20.30;72.00;;;;;;5047555;28;20447;-72
2021/07/31 11:13:18;;;;;;;23.92;14.57;;;20.30;70.90;;;;;;5064521;28;20757;-69
2021/07/31 11:16:00;;;;;;;26.63;16.17;;;20.30;70.50;;;;;;5046076;28;20090;-68
2021/07/31 11:18:39;;;;;;;22.75;13.40;;;20.40;69.90;;;;;;5056777;28;20460;-68
2021/07/31 11:21:13;;;;;;;17.08;11.23;;;20.40;69.70;;;;;;5054144;28;20024;-69
2021/07/31 11:23:46;;;;;;;18.52;11.25;;;20.30;69.90;;;;;;5063062;28;20026;-71
2021/07/31 11:26:30;;;;;;;19.20;11.45;;;20.30;68.40;;;;;;5061167;28;20629;-69
2021/07/31 11:28:56;;;;;;;33.65;12.25;;;20.30;67.80;;;;;;5057510;28;20033;-70
2021/07/31 11:31:23;;;;;;;20.40;9.68;;;20.20;71.50;;;;;;5066560;28;20445;-71
2021/07/31 11:34:08;;;;;;;25.15;12.52;;;20.30;74.50;;;;;;5062060;28;20028;-69
2021/07/31 11:36:42;;;;;;;22.55;10.48;;;20.20;75.70;;;;;;5042033;28;20070;-69
2021/07/31 11:39:10;;;;;;;26.40;11.88;;;20.10;75.50;;;;;;5058243;28;20651;-69
2021/07/31 11:41:44;;;;;;;20.90;10.60;;;20.10;75.80;;;;;;5060381;28;20025;-69
2021/07/31 11:44:12;;;;;;;26.23;11.27;;;20.20;75.40;;;;;;5060702;28;20020;-69
2021/07/31 11:46:46;;;;;;;25.98;13.10;;;20.30;75.20;;;;;;5059435;28;20111;-69
2021/07/31 11:49:25;;;;;;;26.40;11.63;;;20.40;75.00;;;;;;5065696;28;20082;-69
2021/07/31 11:51:53;;;;;;;29.13;11.77;;;20.50;75.00;;;;;;5040056;28;20055;-68
2021/07/31 11:54:59;;;;;;;22.67;11.55;;;20.60;74.50;;;;;;5056431;28;20044;-69
2021/07/31 11:58:05;;;;;;;27.10;12.63;;;20.80;73.80;;;;;;5050394;28;20025;-70
2021/07/31 12:01:11;;;;;;;24.75;11.43;;;21.00;73.30;;;;;;5051624;28;20573;-69
2021/07/31 12:03:55;;;;;;;28.33;13.18;;;21.00;72.80;;;;;;5051964;28;20025;-70
2021/07/31 12:06:43;;;;;;;30.30;14.35;;;21.20;72.30;;;;;;5050412;28;20384;-69
2021/07/31 12:09:18;;;;;;;32.15;14.43;;;21.30;71.30;;;;;;5053410;28;20542;-68
2021/07/31 12:11:45;;;;;;;24.20;11.40;;;21.40;70.60;;;;;;5057024;28;20040;-68
2021/07/31 12:14:38;;;;;;;23.60;11.07;;;21.50;69.10;;;;;;5053699;28;20025;-67
2021/07/31 12:17:17;;;;;;;19.13;10.55;;;21.50;69.10;;;;;;5055079;28;20044;-68
2021/07/31 12:20:24;;;;;;;21.55;10.10;;;21.60;68.20;;;;;;5056278;28;20032;-67
2021/07/31 12:23:30;;;;;;;17.42;9.15;;;21.80;68.10;;;;;;5057269;28;20411;-72
2021/07/31 12:25:58;;;;;;;11.73;7.93;;;21.90;64.60;;;;;;5054921;28;20024;-68
2021/07/31 12:28:40;;;;;;;12.15;6.47;;;22.00;63.80;;;;;;5054903;28;20071;-69
2021/07/31 12:31:28;;;;;;;19.80;7.78;;;22.10;61.10;;;;;;5055202;28;20024;-70
2021/07/31 12:33:56;;;;;;;11.77;6.10;;;22.10;59.30;;;;;;5055610;28;20016;-69
2021/07/31 12:36:23;;;;;;;11.32;5.68;;;22.10;56.90;;;;;;5035534;28;20391;-71
2021/07/31 12:38:54;;;;;;;10.73;5.18;;;22.10;56.60;;;;;;5056735;28;20855;-69
2021/07/31 12:41:25;;;;;;;10.52;4.22;;;22.20;55.90;;;;;;5052872;28;20079;-69
2021/07/31 12:43:52;;;;;;;15.55;5.88;;;22.20;55.50;;;;;;5054522;28;20620;-69
2021/07/31 12:46:21;;;;;;;17.33;8.35;;;22.30;57.30;;;;;;5055133;28;20029;-69
2021/07/31 12:48:47;;;;;;;18.88;8.55;;;22.30;59.10;;;;;;5055606;28;20036;-72
2021/07/31 12:51:14;;;;;;;15.75;7.93;;;22.30;60.10;;;;;;5034919;28;20037;-72
2021/07/31 12:53:40;;;;;;;20.48;8.88;;;22.30;60.40;;;;;;5058376;28;20025;-73
2021/07/31 12:56:07;;;;;;;15.63;8.02;;;22.30;61.70;;;;;;5052887;28;20106;-73
2021/07/31 12:58:33;;;;;;;15.77;6.20;;;22.30;61.10;;;;;;5056466;28;20024;-73
2021/07/31 13:01:00;;;;;;;10.25;5.85;;;22.40;61.40;;;;;;5054488;28;20025;-73
2021/07/31 13:03:26;;;;;;;13.27;5.55;;;22.40;57.80;;;;;;5054815;28;20582;-72
2021/07/31 13:05:53;;;;;;;8.35;3.90;;;22.40;56.70;;;;;;5052112;28;20024;-72
2021/07/31 13:08:19;;;;;;;12.35;6.90;;;22.40;56.60;;;;;;5055039;28;20048;-73
2021/07/31 13:10:46;;;;;;;11.30;5.32;;;22.40;56.30;;;;;;5053516;28;20096;-76
2021/07/31 13:13:13;;;;;;;5.30;2.50;;;22.40;54.60;;;;;;5056691;28;20013;-77
2021/07/31 13:16:19;;;;;;;10.60;5.43;;;22.40;52.10;;;;;;5055484;28;20021;-73
2021/07/31 13:19:26;;;;;;;22.48;15.15;;;22.40;53.50;;;;;;5054201;28;20021;-69
2021/07/31 13:22:32;;;;;;;22.70;9.50;;;22.40;57.70;;;;;;5053754;28;20009;-72
2021/07/31 13:25:38;;;;;;;13.98;7.40;;;22.30;58.60;;;;;;5054972;28;20016;-71
2021/07/31 13:28:44;;;;;;;10.88;5.25;;;22.40;58.00;;;;;;5051613;28;20025;-69
2021/07/31 13:31:50;;;;;;;16.58;6.10;;;22.30;56.10;;;;;;5035000;28;20075;-72
2021/07/31 13:34:17;;;;;;;12.23;5.28;;;22.40;58.50;;;;;;5055717;28;20016;-71
2021/07/31 13:36:44;;;;;;;10.55;6.60;;;22.40;60.10;;;;;;5053902;28;20025;-68
2021/07/31 13:39:14;;;;;;;10.65;5.45;;;22.30;60.40;;;;;;5055643;28;20100;-73